sensor_id;sensor_type;location;lat;lon;timestamp;P1;durP1;ratioP1;P2;durP2;ratioP2
10090;SDS011;5084;51.386;6.778;2022-12-07T00:01:08;6.57;;;5.30;;
10090;SDS011;5084;51.386;6.778;2022-12-07T00:03:35;7.07;;;5.20;;
10090;SDS011;5084;51.386;6.778;2022-12-07T00:06:01;8.60;;;6.13;;
10090;SDS011;5084;51.386;6.778;2022-12-07T00:08:28;7.87;;;5.50;;
10090;SDS011;5084;51.386;6.778;2022-12-07T00:10:54;6.67;;;5.20;;
10090;SDS011;5084;51.386;6.778;2022-12-07T00:13:20;6.47;;;5.40;;
10090;SDS011;5084;51.386;6.778;2022-12-07T00:15:46;5.90;;;5.23;;
10090;SDS011;5084;51.386;6.778;2022-12-07T00:18:12;6.03;;;5.03;;
10090;SDS011;5084;51.386;6.778;2022-12-07T00:20:38;5.73;;;5.17;;
10090;SDS011;5084;51.386;6.778;2022-12-07T00:23:04;7.77;;;5.53;;
10090;SDS011;5084;51.386;6.778;2022-12-07T00:25:30;5.77;;;5.10;;
10090;SDS011;5084;51.386;6.778;2022-12-07T00:27:56;5.30;;;4.80;;
10090;SDS011;5084;51.386;6.778;2022-12-07T00:30:23;6.07;;;5.37;;
10090;SDS011;5084;51.386;6.778;2022-12-07T00:32:49;8.13;;;5.43;;
10090;SDS011;5084;51.386;6.778;2022-12-07T00:35:15;5.60;;;5.07;;
10090;SDS011;5084;51.386;6.778;2022-12-07T00:37:41;6.57;;;5.70;;
10090;SDS011;5084;51.386;6.778;2022-12-07T00:40:07;5.60;;;5.07;;
10090;SDS011;5084;51.386;6.778;2022-12-07T00:42:33;7.43;;;5.40;;
10090;SDS011;5084;51.386;6.778;2022-12-07T00:44:59;7.17;;;5.37;;
10090;SDS011;5084;51.386;6.778;2022-12-07T00:47:25;5.93;;;5.30;;
10090;SDS011;5084;51.386;6.778;2022-12-07T00:49:51;6.57;;;5.73;;
10090;SDS011;5084;51.386;6.778;2022-12-07T00:52:17;7.27;;;5.53;;
10090;SDS011;5084;51.386;6.778;2022-12-07T00:54:43;5.97;;;5.40;;
10090;SDS011;5084;51.386;6.778;2022-12-07T00:57:09;5.67;;;5.17;;
10090;SDS011;5084;51.386;6.778;2022-12-07T00:59:35;6.90;;;5.60;;
10090;SDS011;5084;51.386;6.778;2022-12-07T01:02:02;7.40;;;6.03;;
10090;SDS011;5084;51.386;6.778;2022-12-07T01:04:28;11.97;;;5.53;;
10090;SDS011;5084;51.386;6.778;2022-12-07T01:06:54;6.37;;;5.27;;
10090;SDS011;5084;51.386;6.778;2022-12-07T01:09:20;7.47;;;5.10;;
10090;SDS011;5084;51.386;6.778;2022-12-07T01:11:46;6.43;;;5.30;;
10090;SDS011;5084;51.386;6.778;2022-12-07T01:14:12;6.60;;;5.90;;
10090;SDS011;5084;51.386;6.778;2022-12-07T01:16:38;6.73;;;5.30;;
10090;SDS011;5084;51.386;6.778;2022-12-07T01:19:05;6.53;;;5.50;;
10090;SDS011;5084;51.386;6.778;2022-12-07T01:21:31;6.90;;;6.10;;
10090;SDS011;5084;51.386;6.778;2022-12-07T01:24:00;7.07;;;6.13;;
10090;SDS011;5084;51.386;6.778;2022-12-07T01:26:26;8.57;;;6.57;;
10090;SDS011;5084;51.386;6.778;2022-12-07T01:28:53;6.50;;;5.83;;
10090;SDS011;5084;51.386;6.778;2022-12-07T01:31:21;6.63;;;5.87;;
10090;SDS011;5084;51.386;6.778;2022-12-07T01:33:48;7.33;;;5.57;;
10090;SDS011;5084;51.386;6.778;2022-12-07T01:36:15;7.13;;;6.07;;
10090;SDS011;5084;51.386;6.778;2022-12-07T01:38:42;6.53;;;5.87;;
10090;SDS011;5084;51.386;6.778;2022-12-07T01:41:08;6.63;;;5.90;;
10090;SDS011;5084;51.386;6.778;2022-12-07T01:43:34;8.03;;;7.17;;
10090;SDS011;5084;51.386;6.778;2022-12-07T01:46:02;7.67;;;6.00;;
10090;SDS011;5084;51.386;6.778;2022-12-07T01:48:30;6.20;;;5.53;;
10090;SDS011;5084;51.386;6.778;2022-12-07T01:50:59;7.53;;;5.80;;
10090;SDS011;5084;51.386;6.778;2022-12-07T01:53:26;7.80;;;5.60;;
10090;SDS011;5084;51.386;6.778;2022-12-07T01:55:54;6.30;;;5.70;;
10090;SDS011;5084;51.386;6.778;2022-12-07T01:58:20;6.50;;;5.90;;
10090;SDS011;5084;51.386;6.778;2022-12-07T02:00:47;7.80;;;6.57;;
10090;SDS011;5084;51.386;6.778;2022-12-07T02:03:15;7.20;;;6.50;;
10090;SDS011;5084;51.386;6.778;2022-12-07T02:05:42;7.90;;;6.27;;
10090;SDS011;5084;51.386;6.778;2022-12-07T02:08:09;7.63;;;6.33;;
10090;SDS011;5084;51.386;6.778;2022-12-07T02:10:35;8.60;;;6.63;;
10090;SDS011;5084;51.386;6.778;2022-12-07T02:13:03;6.50;;;5.80;;
10090;SDS011;5084;51.386;6.778;2022-12-07T02:15:36;6.37;;;5.70;;
10090;SDS011;5084;51.386;6.778;2022-12-07T02:18:09;8.50;;;6.13;;
10090;SDS011;5084;51.386;6.778;2022-12-07T02:20:39;7.00;;;5.80;;
10090;SDS011;5084;51.386;6.778;2022-12-07T02:25:41;8.40;;;6.10;;
10090;SDS011;5084;51.386;6.778;2022-12-07T02:28:35;9.03;;;5.50;;
10090;SDS011;5084;51.386;6.778;2022-12-07T02:31:04;10.67;;;6.07;;
10090;SDS011;5084;51.386;6.778;2022-12-07T02:33:33;7.70;;;5.73;;
10090;SDS011;5084;51.386;6.778;2022-12-07T02:36:06;7.57;;;5.83;;
10090;SDS011;5084;51.386;6.778;2022-12-07T02:38:38;11.23;;;7.03;;
10090;SDS011;5084;51.386;6.778;2022-12-07T02:41:20;6.37;;;5.77;;
10090;SDS011;5084;51.386;6.778;2022-12-07T02:43:55;8.37;;;5.77;;
10090;SDS011;5084;51.386;6.778;2022-12-07T02:46:27;6.53;;;5.37;;
10090;SDS011;5084;51.386;6.778;2022-12-07T02:48:53;7.50;;;6.23;;
10090;SDS011;5084;51.386;6.778;2022-12-07T02:51:20;9.07;;;5.77;;
10090;SDS011;5084;51.386;6.778;2022-12-07T02:53:46;7.60;;;6.80;;
10090;SDS011;5084;51.386;6.778;2022-12-07T03:01:10;7.90;;;6.00;;
10090;SDS011;5084;51.386;6.778;2022-12-07T03:03:37;10.47;;;5.90;;
10090;SDS011;5084;51.386;6.778;2022-12-07T03:06:07;6.63;;;5.83;;
10090;SDS011;5084;51.386;6.778;2022-12-07T03:11:05;8.60;;;6.30;;
10090;SDS011;5084;51.386;6.778;2022-12-07T03:13:54;6.57;;;5.90;;
10090;SDS011;5084;51.386;6.778;2022-12-07T03:16:23;7.03;;;5.60;;
10090;SDS011;5084;51.386;6.778;2022-12-07T03:18:55;7.03;;;6.27;;
10090;SDS011;5084;51.386;6.778;2022-12-07T03:21:23;6.47;;;5.77;;
10090;SDS011;5084;51.386;6.778;2022-12-07T03:23:51;7.43;;;5.70;;
10090;SDS011;5084;51.386;6.778;2022-12-07T03:26:19;6.43;;;5.50;;
10090;SDS011;5084;51.386;6.778;2022-12-07T03:28:52;7.27;;;6.20;;
10090;SDS011;5084;51.386;6.778;2022-12-07T03:31:30;6.37;;;5.17;;
10090;SDS011;5084;51.386;6.778;2022-12-07T03:36:31;7.20;;;5.40;;
10090;SDS011;5084;51.386;6.778;2022-12-07T03:41:40;6.93;;;5.90;;
10090;SDS011;5084;51.386;6.778;2022-12-07T03:44:06;6.20;;;5.60;;
10090;SDS011;5084;51.386;6.778;2022-12-07T03:52:02;6.60;;;5.73;;
10090;SDS011;5084;51.386;6.778;2022-12-07T03:54:41;8.00;;;5.93;;
10090;SDS011;5084;51.386;6.778;2022-12-07T03:57:11;10.17;;;6.30;;
10090;SDS011;5084;51.386;6.778;2022-12-07T03:59:38;9.07;;;5.60;;
10090;SDS011;5084;51.386;6.778;2022-12-07T04:02:05;7.70;;;5.80;;
10090;SDS011;5084;51.386;6.778;2022-12-07T04:04:31;7.20;;;6.07;;
10090;SDS011;5084;51.386;6.778;2022-12-07T04:06:58;6.57;;;5.77;;
10090;SDS011;5084;51.386;6.778;2022-12-07T04:09:24;8.33;;;6.60;;
10090;SDS011;5084;51.386;6.778;2022-12-07T04:11:50;8.63;;;5.47;;
10090;SDS011;5084;51.386;6.778;2022-12-07T04:14:16;7.00;;;6.30;;
10090;SDS011;5084;51.386;6.778;2022-12-07T04:16:43;11.87;;;7.00;;
10090;SDS011;5084;51.386;6.778;2022-12-07T04:19:09;9.30;;;5.40;;
10090;SDS011;5084;51.386;6.778;2022-12-07T04:21:35;7.20;;;5.77;;
10090;SDS011;5084;51.386;6.778;2022-12-07T04:24:01;6.97;;;5.67;;
10090;SDS011;5084;51.386;6.778;2022-12-07T04:26:27;5.67;;;5.17;;
10090;SDS011;5084;51.386;6.778;2022-12-07T04:28:53;6.50;;;5.47;;
10090;SDS011;5084;51.386;6.778;2022-12-07T04:31:19;7.03;;;5.10;;
10090;SDS011;5084;51.386;6.778;2022-12-07T04:33:45;7.77;;;5.83;;
10090;SDS011;5084;51.386;6.778;2022-12-07T04:36:11;5.73;;;5.07;;
10090;SDS011;5084;51.386;6.778;2022-12-07T04:38:37;7.33;;;5.67;;
10090;SDS011;5084;51.386;6.778;2022-12-07T04:41:07;6.97;;;5.90;;
10090;SDS011;5084;51.386;6.778;2022-12-07T04:43:33;6.50;;;5.87;;
10090;SDS011;5084;51.386;6.778;2022-12-07T04:45:59;6.47;;;5.77;;
10090;SDS011;5084;51.386;6.778;2022-12-07T04:48:26;7.17;;;5.83;;
10090;SDS011;5084;51.386;6.778;2022-12-07T04:50:52;9.17;;;7.00;;
10090;SDS011;5084;51.386;6.778;2022-12-07T04:53:18;6.63;;;5.93;;
10090;SDS011;5084;51.386;6.778;2022-12-07T04:55:44;6.90;;;5.50;;
10090;SDS011;5084;51.386;6.778;2022-12-07T04:58:11;5.50;;;5.00;;
10090;SDS011;5084;51.386;6.778;2022-12-07T05:00:37;9.17;;;5.67;;
10090;SDS011;5084;51.386;6.778;2022-12-07T05:03:03;9.27;;;6.20;;
10090;SDS011;5084;51.386;6.778;2022-12-07T05:05:30;6.40;;;5.73;;
10090;SDS011;5084;51.386;6.778;2022-12-07T05:07:56;7.27;;;5.60;;
10090;SDS011;5084;51.386;6.778;2022-12-07T05:10:22;6.53;;;4.93;;
10090;SDS011;5084;51.386;6.778;2022-12-07T05:12:48;5.83;;;5.07;;
10090;SDS011;5084;51.386;6.778;2022-12-07T05:15:14;7.07;;;5.43;;
10090;SDS011;5084;51.386;6.778;2022-12-07T05:17:40;6.97;;;5.53;;
10090;SDS011;5084;51.386;6.778;2022-12-07T05:20:07;8.33;;;5.73;;
10090;SDS011;5084;51.386;6.778;2022-12-07T05:22:33;6.33;;;5.73;;
10090;SDS011;5084;51.386;6.778;2022-12-07T05:24:59;7.07;;;4.93;;
10090;SDS011;5084;51.386;6.778;2022-12-07T05:27:25;7.30;;;5.43;;
10090;SDS011;5084;51.386;6.778;2022-12-07T05:29:52;7.20;;;5.77;;
10090;SDS011;5084;51.386;6.778;2022-12-07T05:32:18;7.00;;;5.90;;
10090;SDS011;5084;51.386;6.778;2022-12-07T05:34:44;7.37;;;5.77;;
10090;SDS011;5084;51.386;6.778;2022-12-07T05:37:10;6.50;;;4.83;;
10090;SDS011;5084;51.386;6.778;2022-12-07T05:39:36;8.37;;;5.37;;
10090;SDS011;5084;51.386;6.778;2022-12-07T05:42:05;7.20;;;5.37;;
10090;SDS011;5084;51.386;6.778;2022-12-07T05:44:41;7.17;;;5.40;;
10090;SDS011;5084;51.386;6.778;2022-12-07T05:47:08;9.63;;;4.90;;
10090;SDS011;5084;51.386;6.778;2022-12-07T05:49:34;8.67;;;5.47;;
10090;SDS011;5084;51.386;6.778;2022-12-07T05:52:00;4.90;;;4.40;;
10090;SDS011;5084;51.386;6.778;2022-12-07T05:54:26;8.60;;;5.13;;
10090;SDS011;5084;51.386;6.778;2022-12-07T05:56:52;7.47;;;5.37;;
10090;SDS011;5084;51.386;6.778;2022-12-07T05:59:18;6.43;;;5.03;;
10090;SDS011;5084;51.386;6.778;2022-12-07T06:04:16;5.17;;;4.67;;
10090;SDS011;5084;51.386;6.778;2022-12-07T06:06:42;7.43;;;5.50;;
10090;SDS011;5084;51.386;6.778;2022-12-07T06:09:09;6.03;;;4.77;;
10090;SDS011;5084;51.386;6.778;2022-12-07T06:11:35;6.30;;;5.17;;
10090;SDS011;5084;51.386;6.778;2022-12-07T06:14:19;4.90;;;4.40;;
10090;SDS011;5084;51.386;6.778;2022-12-07T06:16:45;5.90;;;5.13;;
10090;SDS011;5084;51.386;6.778;2022-12-07T06:19:12;6.33;;;5.03;;
10090;SDS011;5084;51.386;6.778;2022-12-07T06:21:38;5.67;;;4.77;;
10090;SDS011;5084;51.386;6.778;2022-12-07T06:24:04;5.57;;;4.13;;
10090;SDS011;5084;51.386;6.778;2022-12-07T06:26:30;5.27;;;4.77;;
10090;SDS011;5084;51.386;6.778;2022-12-07T06:28:56;6.83;;;5.30;;
10090;SDS011;5084;51.386;6.778;2022-12-07T06:31:22;6.07;;;5.37;;
10090;SDS011;5084;51.386;6.778;2022-12-07T06:33:48;5.43;;;4.80;;
10090;SDS011;5084;51.386;6.778;2022-12-07T06:36:14;7.03;;;5.13;;
10090;SDS011;5084;51.386;6.778;2022-12-07T06:38:40;4.47;;;3.77;;
10090;SDS011;5084;51.386;6.778;2022-12-07T06:41:06;7.13;;;4.80;;
10090;SDS011;5084;51.386;6.778;2022-12-07T06:43:32;8.73;;;4.97;;
10090;SDS011;5084;51.386;6.778;2022-12-07T06:45:59;6.67;;;5.10;;
10090;SDS011;5084;51.386;6.778;2022-12-07T06:48:25;5.53;;;4.23;;
10090;SDS011;5084;51.386;6.778;2022-12-07T06:50:51;4.73;;;4.23;;
10090;SDS011;5084;51.386;6.778;2022-12-07T06:53:20;6.50;;;5.00;;
10090;SDS011;5084;51.386;6.778;2022-12-07T06:55:46;4.93;;;4.40;;
10090;SDS011;5084;51.386;6.778;2022-12-07T06:58:12;7.17;;;5.23;;
10090;SDS011;5084;51.386;6.778;2022-12-07T07:00:38;5.40;;;4.47;;
10090;SDS011;5084;51.386;6.778;2022-12-07T07:03:04;6.63;;;5.07;;
10090;SDS011;5084;51.386;6.778;2022-12-07T07:05:30;5.93;;;4.30;;
10090;SDS011;5084;51.386;6.778;2022-12-07T07:07:56;6.20;;;4.90;;
10090;SDS011;5084;51.386;6.778;2022-12-07T07:10:22;5.97;;;5.00;;
10090;SDS011;5084;51.386;6.778;2022-12-07T07:12:48;5.30;;;4.60;;
10090;SDS011;5084;51.386;6.778;2022-12-07T07:15:14;6.60;;;4.23;;
10090;SDS011;5084;51.386;6.778;2022-12-07T07:17:40;7.00;;;5.40;;
10090;SDS011;5084;51.386;6.778;2022-12-07T07:20:06;5.57;;;4.20;;
10090;SDS011;5084;51.386;6.778;2022-12-07T07:22:32;9.27;;;4.73;;
10090;SDS011;5084;51.386;6.778;2022-12-07T07:24:58;7.23;;;4.67;;
10090;SDS011;5084;51.386;6.778;2022-12-07T07:27:24;5.23;;;4.20;;
10090;SDS011;5084;51.386;6.778;2022-12-07T07:29:50;9.07;;;4.93;;
10090;SDS011;5084;51.386;6.778;2022-12-07T07:32:16;5.30;;;3.80;;
10090;SDS011;5084;51.386;6.778;2022-12-07T07:34:42;5.03;;;4.40;;
10090;SDS011;5084;51.386;6.778;2022-12-07T07:37:08;6.40;;;3.90;;
10090;SDS011;5084;51.386;6.778;2022-12-07T07:39:37;7.23;;;4.30;;
10090;SDS011;5084;51.386;6.778;2022-12-07T07:42:03;5.27;;;4.30;;
10090;SDS011;5084;51.386;6.778;2022-12-07T07:44:29;6.00;;;4.43;;
10090;SDS011;5084;51.386;6.778;2022-12-07T07:46:56;5.83;;;4.47;;
10090;SDS011;5084;51.386;6.778;2022-12-07T07:49:22;6.10;;;4.07;;
10090;SDS011;5084;51.386;6.778;2022-12-07T07:51:48;5.10;;;4.53;;
10090;SDS011;5084;51.386;6.778;2022-12-07T07:54:14;5.20;;;3.93;;
10090;SDS011;5084;51.386;6.778;2022-12-07T07:56:40;3.87;;;3.53;;
10090;SDS011;5084;51.386;6.778;2022-12-07T07:59:06;5.17;;;4.30;;
10090;SDS011;5084;51.386;6.778;2022-12-07T08:01:32;6.07;;;4.67;;
10090;SDS011;5084;51.386;6.778;2022-12-07T08:03:58;6.03;;;4.30;;
10090;SDS011;5084;51.386;6.778;2022-12-07T08:06:24;4.63;;;3.77;;
10090;SDS011;5084;51.386;6.778;2022-12-07T08:08:50;6.23;;;4.20;;
10090;SDS011;5084;51.386;6.778;2022-12-07T08:11:16;4.67;;;4.17;;
10090;SDS011;5084;51.386;6.778;2022-12-07T08:13:44;6.07;;;4.80;;
10090;SDS011;5084;51.386;6.778;2022-12-07T08:16:11;5.10;;;3.87;;
10090;SDS011;5084;51.386;6.778;2022-12-07T08:18:38;5.83;;;4.33;;
10090;SDS011;5084;51.386;6.778;2022-12-07T08:21:04;7.90;;;5.10;;
10090;SDS011;5084;51.386;6.778;2022-12-07T08:23:30;4.43;;;3.77;;
10090;SDS011;5084;51.386;6.778;2022-12-07T08:26:00;4.10;;;3.70;;
10090;SDS011;5084;51.386;6.778;2022-12-07T08:28:27;4.57;;;4.17;;
10090;SDS011;5084;51.386;6.778;2022-12-07T08:31:00;4.10;;;3.67;;
10090;SDS011;5084;51.386;6.778;2022-12-07T08:33:26;5.03;;;3.60;;
10090;SDS011;5084;51.386;6.778;2022-12-07T08:35:52;5.93;;;4.13;;
10090;SDS011;5084;51.386;6.778;2022-12-07T08:38:19;4.43;;;3.93;;
10090;SDS011;5084;51.386;6.778;2022-12-07T08:40:45;4.30;;;3.90;;
10090;SDS011;5084;51.386;6.778;2022-12-07T08:43:11;6.93;;;4.17;;
10090;SDS011;5084;51.386;6.778;2022-12-07T08:45:37;5.50;;;4.17;;
10090;SDS011;5084;51.386;6.778;2022-12-07T08:48:06;6.03;;;3.90;;
10090;SDS011;5084;51.386;6.778;2022-12-07T08:50:33;5.37;;;3.50;;
10090;SDS011;5084;51.386;6.778;2022-12-07T08:53:00;4.77;;;3.70;;
10090;SDS011;5084;51.386;6.778;2022-12-07T08:55:27;6.60;;;3.90;;
10090;SDS011;5084;51.386;6.778;2022-12-07T08:57:54;3.90;;;3.30;;
10090;SDS011;5084;51.386;6.778;2022-12-07T09:00:21;5.80;;;3.33;;
10090;SDS011;5084;51.386;6.778;2022-12-07T09:02:47;5.30;;;3.60;;
10090;SDS011;5084;51.386;6.778;2022-12-07T09:05:13;6.13;;;4.03;;
10090;SDS011;5084;51.386;6.778;2022-12-07T09:07:43;7.23;;;3.77;;
10090;SDS011;5084;51.386;6.778;2022-12-07T09:10:09;5.23;;;3.40;;
10090;SDS011;5084;51.386;6.778;2022-12-07T09:12:35;4.37;;;3.03;;
10090;SDS011;5084;51.386;6.778;2022-12-07T09:15:01;7.57;;;3.10;;
10090;SDS011;5084;51.386;6.778;2022-12-07T09:17:27;5.77;;;3.73;;
10090;SDS011;5084;51.386;6.778;2022-12-07T09:19:57;4.20;;;3.80;;
10090;SDS011;5084;51.386;6.778;2022-12-07T09:22:23;3.50;;;3.00;;
10090;SDS011;5084;51.386;6.778;2022-12-07T09:24:49;5.30;;;3.60;;
10090;SDS011;5084;51.386;6.778;2022-12-07T09:27:15;4.23;;;3.47;;
10090;SDS011;5084;51.386;6.778;2022-12-07T09:29:42;4.03;;;3.37;;
10090;SDS011;5084;51.386;6.778;2022-12-07T09:32:15;4.57;;;3.00;;
10090;SDS011;5084;51.386;6.778;2022-12-07T09:34:41;7.03;;;3.73;;
10090;SDS011;5084;51.386;6.778;2022-12-07T09:37:07;3.67;;;3.33;;
10090;SDS011;5084;51.386;6.778;2022-12-07T09:39:33;6.93;;;3.73;;
10090;SDS011;5084;51.386;6.778;2022-12-07T09:41:59;5.17;;;3.57;;
10090;SDS011;5084;51.386;6.778;2022-12-07T09:44:28;3.70;;;3.27;;
10090;SDS011;5084;51.386;6.778;2022-12-07T09:46:54;6.03;;;3.03;;
10090;SDS011;5084;51.386;6.778;2022-12-07T09:49:22;4.23;;;3.17;;
10090;SDS011;5084;51.386;6.778;2022-12-07T09:54:27;4.60;;;3.60;;
10090;SDS011;5084;51.386;6.778;2022-12-07T09:56:55;3.57;;;2.77;;
10090;SDS011;5084;51.386;6.778;2022-12-07T09:59:21;3.57;;;3.10;;
10090;SDS011;5084;51.386;6.778;2022-12-07T10:01:48;4.17;;;3.07;;
10090;SDS011;5084;51.386;6.778;2022-12-07T10:04:24;7.60;;;3.67;;
10090;SDS011;5084;51.386;6.778;2022-12-07T10:06:50;4.30;;;3.33;;
10090;SDS011;5084;51.386;6.778;2022-12-07T10:09:18;3.23;;;2.87;;
10090;SDS011;5084;51.386;6.778;2022-12-07T10:14:30;5.30;;;3.03;;
10090;SDS011;5084;51.386;6.778;2022-12-07T10:16:56;4.63;;;3.27;;
10090;SDS011;5084;51.386;6.778;2022-12-07T10:19:24;4.17;;;3.43;;
10090;SDS011;5084;51.386;6.778;2022-12-07T10:22:10;4.60;;;3.70;;
10090;SDS011;5084;51.386;6.778;2022-12-07T10:24:37;4.10;;;3.70;;
10090;SDS011;5084;51.386;6.778;2022-12-07T10:27:10;7.43;;;3.27;;
10090;SDS011;5084;51.386;6.778;2022-12-07T10:29:42;5.10;;;3.20;;
10090;SDS011;5084;51.386;6.778;2022-12-07T10:34:41;3.90;;;3.47;;
10090;SDS011;5084;51.386;6.778;2022-12-07T10:39:41;3.50;;;2.93;;
10090;SDS011;5084;51.386;6.778;2022-12-07T10:42:15;5.70;;;3.20;;
10090;SDS011;5084;51.386;6.778;2022-12-07T10:44:41;2.53;;;2.33;;
10090;SDS011;5084;51.386;6.778;2022-12-07T10:47:12;4.07;;;2.80;;
10090;SDS011;5084;51.386;6.778;2022-12-07T11:00:29;2.83;;;2.57;;
10090;SDS011;5084;51.386;6.778;2022-12-07T11:05:44;6.33;;;2.93;;
10090;SDS011;5084;51.386;6.778;2022-12-07T11:08:23;6.50;;;3.30;;
10090;SDS011;5084;51.386;6.778;2022-12-07T11:10:58;3.30;;;2.93;;
10090;SDS011;5084;51.386;6.778;2022-12-07T11:21:15;6.07;;;2.90;;
10090;SDS011;5084;51.386;6.778;2022-12-07T11:23:51;3.23;;;2.90;;
10090;SDS011;5084;51.386;6.778;2022-12-07T11:28:57;4.73;;;3.30;;
10090;SDS011;5084;51.386;6.778;2022-12-07T11:34:05;4.73;;;2.43;;
10090;SDS011;5084;51.386;6.778;2022-12-07T11:39:01;4.43;;;2.90;;
10090;SDS011;5084;51.386;6.778;2022-12-07T11:41:32;2.43;;;2.23;;
10090;SDS011;5084;51.386;6.778;2022-12-07T11:46:56;5.90;;;2.10;;
10090;SDS011;5084;51.386;6.778;2022-12-07T11:49:35;4.20;;;2.40;;
10090;SDS011;5084;51.386;6.778;2022-12-07T11:52:04;5.27;;;2.50;;
10090;SDS011;5084;51.386;6.778;2022-12-07T11:54:32;5.00;;;2.30;;
10090;SDS011;5084;51.386;6.778;2022-12-07T11:57:02;7.03;;;2.20;;
10090;SDS011;5084;51.386;6.778;2022-12-07T11:59:31;2.47;;;2.17;;
10090;SDS011;5084;51.386;6.778;2022-12-07T12:02:15;2.97;;;2.30;;
10090;SDS011;5084;51.386;6.778;2022-12-07T12:07:15;4.60;;;2.20;;
10090;SDS011;5084;51.386;6.778;2022-12-07T12:09:53;3.27;;;2.07;;
10090;SDS011;5084;51.386;6.778;2022-12-07T12:14:56;5.73;;;2.10;;
10090;SDS011;5084;51.386;6.778;2022-12-07T12:22:43;2.40;;;1.87;;
10090;SDS011;5084;51.386;6.778;2022-12-07T12:25:20;4.33;;;1.73;;
10090;SDS011;5084;51.386;6.778;2022-12-07T12:27:48;2.67;;;2.10;;
10090;SDS011;5084;51.386;6.778;2022-12-07T12:30:29;4.13;;;1.90;;
10090;SDS011;5084;51.386;6.778;2022-12-07T12:33:01;2.43;;;2.20;;
10090;SDS011;5084;51.386;6.778;2022-12-07T12:35:32;3.53;;;2.00;;
10090;SDS011;5084;51.386;6.778;2022-12-07T12:40:43;2.73;;;1.60;;
10090;SDS011;5084;51.386;6.778;2022-12-07T12:48:39;2.23;;;2.03;;
10090;SDS011;5084;51.386;6.778;2022-12-07T12:53:50;5.63;;;1.80;;
10090;SDS011;5084;51.386;6.778;2022-12-07T12:56:39;4.90;;;2.07;;
10090;SDS011;5084;51.386;6.778;2022-12-07T12:59:23;3.30;;;1.60;;
10090;SDS011;5084;51.386;6.778;2022-12-07T13:01:50;3.53;;;1.90;;
10090;SDS011;5084;51.386;6.778;2022-12-07T13:04:27;3.33;;;2.27;;
10090;SDS011;5084;51.386;6.778;2022-12-07T13:06:53;3.90;;;1.90;;
10090;SDS011;5084;51.386;6.778;2022-12-07T13:09:27;1.80;;;1.70;;
10090;SDS011;5084;51.386;6.778;2022-12-07T13:11:58;1.40;;;1.30;;
10090;SDS011;5084;51.386;6.778;2022-12-07T13:17:58;2.43;;;1.23;;
10090;SDS011;5084;51.386;6.778;2022-12-07T13:20:02;2.17;;;1.67;;
10090;SDS011;5084;51.386;6.778;2022-12-07T13:27:34;1.67;;;1.57;;
10090;SDS011;5084;51.386;6.778;2022-12-07T13:30:00;3.00;;;1.80;;
10090;SDS011;5084;51.386;6.778;2022-12-07T13:32:27;3.63;;;1.43;;
10090;SDS011;5084;51.386;6.778;2022-12-07T13:34:54;2.20;;;1.70;;
10090;SDS011;5084;51.386;6.778;2022-12-07T13:39:48;4.13;;;2.00;;
10090;SDS011;5084;51.386;6.778;2022-12-07T13:42:36;2.07;;;1.80;;
10090;SDS011;5084;51.386;6.778;2022-12-07T13:45:21;2.80;;;2.10;;
10090;SDS011;5084;51.386;6.778;2022-12-07T13:48:08;2.20;;;2.00;;
10090;SDS011;5084;51.386;6.778;2022-12-07T13:50:35;3.40;;;1.47;;
10090;SDS011;5084;51.386;6.778;2022-12-07T13:53:07;3.50;;;1.97;;
10090;SDS011;5084;51.386;6.778;2022-12-07T13:55:33;2.43;;;1.50;;
10090;SDS011;5084;51.386;6.778;2022-12-07T13:58:00;4.23;;;2.23;;
10090;SDS011;5084;51.386;6.778;2022-12-07T14:00:26;3.53;;;1.60;;
10090;SDS011;5084;51.386;6.778;2022-12-07T14:03:01;2.93;;;1.90;;
10090;SDS011;5084;51.386;6.778;2022-12-07T14:05:29;3.47;;;2.13;;
10090;SDS011;5084;51.386;6.778;2022-12-07T14:07:56;3.43;;;1.80;;
10090;SDS011;5084;51.386;6.778;2022-12-07T14:12:56;2.40;;;1.77;;
10090;SDS011;5084;51.386;6.778;2022-12-07T14:15:23;3.67;;;1.87;;
10090;SDS011;5084;51.386;6.778;2022-12-07T14:17:50;2.00;;;1.80;;
10090;SDS011;5084;51.386;6.778;2022-12-07T14:20:36;4.83;;;1.33;;
10090;SDS011;5084;51.386;6.778;2022-12-07T14:23:03;3.07;;;1.73;;
10090;SDS011;5084;51.386;6.778;2022-12-07T14:25:47;4.73;;;1.60;;
10090;SDS011;5084;51.386;6.778;2022-12-07T14:28:27;2.67;;;2.13;;
10090;SDS011;5084;51.386;6.778;2022-12-07T14:30:53;3.63;;;1.90;;
10090;SDS011;5084;51.386;6.778;2022-12-07T14:33:19;2.00;;;1.77;;
10090;SDS011;5084;51.386;6.778;2022-12-07T14:35:47;3.80;;;1.57;;
10090;SDS011;5084;51.386;6.778;2022-12-07T14:38:14;2.67;;;1.87;;
10090;SDS011;5084;51.386;6.778;2022-12-07T14:40:40;2.70;;;1.67;;
10090;SDS011;5084;51.386;6.778;2022-12-07T14:43:09;2.53;;;1.87;;
10090;SDS011;5084;51.386;6.778;2022-12-07T14:45:36;2.83;;;1.60;;
10090;SDS011;5084;51.386;6.778;2022-12-07T14:48:05;6.10;;;2.13;;
10090;SDS011;5084;51.386;6.778;2022-12-07T14:50:31;4.40;;;1.73;;
10090;SDS011;5084;51.386;6.778;2022-12-07T14:53:02;5.50;;;1.80;;
10090;SDS011;5084;51.386;6.778;2022-12-07T14:55:31;1.93;;;1.57;;
10090;SDS011;5084;51.386;6.778;2022-12-07T14:57:57;1.67;;;1.43;;
10090;SDS011;5084;51.386;6.778;2022-12-07T15:00:24;2.20;;;1.50;;
10090;SDS011;5084;51.386;6.778;2022-12-07T15:02:51;2.63;;;1.83;;
10090;SDS011;5084;51.386;6.778;2022-12-07T15:05:17;3.83;;;1.80;;
10090;SDS011;5084;51.386;6.778;2022-12-07T15:07:44;2.63;;;1.40;;
10090;SDS011;5084;51.386;6.778;2022-12-07T15:10:18;5.67;;;1.97;;
10090;SDS011;5084;51.386;6.778;2022-12-07T15:12:44;1.53;;;1.43;;
10090;SDS011;5084;51.386;6.778;2022-12-07T15:15:10;1.93;;;1.53;;
10090;SDS011;5084;51.386;6.778;2022-12-07T15:17:36;3.93;;;1.70;;
10090;SDS011;5084;51.386;6.778;2022-12-07T15:20:12;2.50;;;1.60;;
10090;SDS011;5084;51.386;6.778;2022-12-07T15:22:39;2.97;;;1.87;;
10090;SDS011;5084;51.386;6.778;2022-12-07T15:25:05;2.57;;;1.67;;
10090;SDS011;5084;51.386;6.778;2022-12-07T15:27:31;7.23;;;2.20;;
10090;SDS011;5084;51.386;6.778;2022-12-07T15:30:04;5.97;;;2.13;;
10090;SDS011;5084;51.386;6.778;2022-12-07T15:32:30;3.67;;;2.17;;
10090;SDS011;5084;51.386;6.778;2022-12-07T15:34:56;2.53;;;1.43;;
10090;SDS011;5084;51.386;6.778;2022-12-07T15:37:22;3.47;;;1.80;;
10090;SDS011;5084;51.386;6.778;2022-12-07T15:39:48;3.33;;;1.80;;
10090;SDS011;5084;51.386;6.778;2022-12-07T15:42:14;2.50;;;1.77;;
10090;SDS011;5084;51.386;6.778;2022-12-07T15:44:40;2.13;;;1.53;;
10090;SDS011;5084;51.386;6.778;2022-12-07T15:47:25;3.00;;;1.87;;
10090;SDS011;5084;51.386;6.778;2022-12-07T15:49:51;1.77;;;1.53;;
10090;SDS011;5084;51.386;6.778;2022-12-07T15:52:17;2.50;;;1.60;;
10090;SDS011;5084;51.386;6.778;2022-12-07T15:54:44;2.17;;;1.57;;
10090;SDS011;5084;51.386;6.778;2022-12-07T15:57:10;3.10;;;1.80;;
10090;SDS011;5084;51.386;6.778;2022-12-07T15:59:36;2.67;;;1.67;;
10090;SDS011;5084;51.386;6.778;2022-12-07T16:02:02;2.20;;;2.00;;
10090;SDS011;5084;51.386;6.778;2022-12-07T16:04:28;4.10;;;2.23;;
10090;SDS011;5084;51.386;6.778;2022-12-07T16:06:55;2.77;;;1.90;;
10090;SDS011;5084;51.386;6.778;2022-12-07T16:09:21;3.67;;;2.43;;
10090;SDS011;5084;51.386;6.778;2022-12-07T16:11:47;2.57;;;2.00;;
10090;SDS011;5084;51.386;6.778;2022-12-07T16:14:15;3.13;;;2.13;;
10090;SDS011;5084;51.386;6.778;2022-12-07T16:16:41;2.07;;;1.87;;
10090;SDS011;5084;51.386;6.778;2022-12-07T16:19:08;4.40;;;2.20;;
10090;SDS011;5084;51.386;6.778;2022-12-07T16:21:34;2.73;;;2.03;;
10090;SDS011;5084;51.386;6.778;2022-12-07T16:24:01;4.03;;;2.40;;
10090;SDS011;5084;51.386;6.778;2022-12-07T16:26:27;2.27;;;1.97;;
10090;SDS011;5084;51.386;6.778;2022-12-07T16:28:53;3.03;;;2.07;;
10090;SDS011;5084;51.386;6.778;2022-12-07T16:31:21;2.50;;;2.30;;
10090;SDS011;5084;51.386;6.778;2022-12-07T16:33:48;3.73;;;2.37;;
10090;SDS011;5084;51.386;6.778;2022-12-07T16:36:14;2.93;;;2.00;;
10090;SDS011;5084;51.386;6.778;2022-12-07T16:38:41;2.70;;;2.13;;
10090;SDS011;5084;51.386;6.778;2022-12-07T16:41:07;2.57;;;2.03;;
10090;SDS011;5084;51.386;6.778;2022-12-07T16:43:34;2.30;;;2.10;;
10090;SDS011;5084;51.386;6.778;2022-12-07T16:46:00;4.03;;;2.27;;